Latest Weather Observations for Mount Magnet Airport

IDW60801

Issued at 8:32 am WST Sunday 1 March 2015 (issued every 30 minutes, with the page automatically refreshed every 10 minutes)

About weather observations | Map of weather stations | Latest weather observations for WA | Other Formats
Station Details ID: 007600 Name: MOUNT MAGNET AERO Lat: -28.12 Lon: 117.84 Height: 407.0 m
Data from the previous 72 hours. | See also: Recent months at Mount Magnet Airport
Date/Time
WST
Temp
°C
App
Temp
°C
Dew
Point
Rel
Hum
%
Delta-T
°C
Wind Press
QNH
hPa
Press
MSL
hPa
Rain
since 9 am
mm
Dir
 
Spd
km/h
Gust
km/h
Spd
kts
Gust
kts
01/08:30am 24.1 25.5 21.8 87 1.6 NE 17 22 9 12 1011.9 1009.3 11.8
01/08:00am 23.8 24.1 21.5 87 1.5 NE 22 30 12 16 1011.5 1008.9 11.8
01/07:30am 23.6 25.0 21.1 86 1.7 NE 15 22 8 12 1011.7 1008.5 11.8
01/07:00am 23.6 24.7 21.3 87 1.5 ENE 17 24 9 13 1011.8 1008.7 11.8
01/06:30am 23.0 25.3 20.7 87 1.5 ENE 9 13 5 7 1011.8 1008.7 11.8
01/06:00am 22.4 24.7 19.9 86 1.6 NE 7 9 4 5 1011.6 1008.4 11.8
01/05:30am 22.2 24.0 19.6 85 1.7 NNE 9 13 5 7 1011.1 1008.0 11.8
01/05:00am 22.0 22.0 19.7 87 1.5 NNE 19 24 10 13 1010.8 1007.7 11.8
01/04:30am 21.9 23.4 20.5 92 0.9 NE 13 17 7 9 1010.6 1007.5 11.8
01/04:00am 22.3 24.8 21.1 93 0.8 NNE 9 15 5 8 1010.4 1007.3 11.8
01/03:30am 22.0 22.3 20.8 93 0.8 NE 20 28 11 15 1010.1 1007.0 11.0
01/03:00am 22.7 24.3 21.5 93 0.8 ENE 15 24 8 13 1010.7 1007.6 8.4
01/02:30am 23.1 23.9 21.7 92 0.9 NE 20 28 11 15 1010.6 1007.5 6.8
01/02:00am 23.5 24.3 21.8 90 1.1 NE 20 24 11 13 1010.7 1007.6 4.6
01/01:30am 24.0 25.6 21.5 86 1.7 NE 15 22 8 12 1011.2 1008.1 2.2
01/01:00am 24.6 25.0 20.9 80 2.5 ENE 20 28 11 15 1010.6 1007.5 1.4
01/12:30am 25.4 23.2 20.4 74 3.3 NE 32 43 17 23 1010.2 1007.1 0.4
01/12:00am 28.1 25.2 18.8 57 6.1 ENE 32 50 17 27 1010.6 1007.5 0.0
 
Date/Time
WST
Temp
°C
App
Temp
°C
Dew
Point
Rel
Hum
%
Delta-T
°C
Wind Press
QNH
hPa
Press
MSL
hPa
Rain
since 9 am
mm
Dir
 
Spd
km/h
Gust
km/h
Spd
kts
Gust
kts
28/11:54pm 28.1 25.9 18.8 57 6.1 ENE 28 50 15 27 1010.7 1007.6 0.0
28/11:30pm 28.5 25.6 18.9 56 6.3 ENE 32 43 17 23 1010.6 1007.5 0.0
28/11:00pm 28.7 26.4 18.5 54 6.7 ENE 28 41 15 22 1010.3 1007.2 0.0
28/10:30pm 29.0 26.6 19.0 54 6.6 ENE 30 43 16 23 1010.1 1007.0 0.0
28/10:00pm 29.1 27.7 18.8 53 6.8 ENE 24 32 13 17 1010.5 1007.4 0.0
28/09:30pm 29.4 28.4 18.8 53 6.9 ENE 22 33 12 18 1010.8 1007.7 0.0
28/09:00pm 29.6 28.7 19.0 53 7.0 ENE 22 37 12 20 1010.8 1007.7 0.0
28/08:30pm 29.8 28.7 19.5 54 6.8 ENE 24 35 13 19 1010.5 1007.4 0.0
28/08:00pm 30.1 29.4 19.5 53 7.0 ENE 22 32 12 17 1010.2 1007.1 0.0
28/07:30pm 30.5 28.3 19.5 51 7.3 E 30 43 16 23 1009.8 1006.7 0.0
28/07:20pm 30.7 28.6 19.7 52 7.3 ENE 30 48 16 26 1009.6 1006.5 0.0
28/07:00pm 31.2 28.8 19.9 51 7.6 E 32 46 17 25 1009.0 1005.8 0.0
28/06:53pm 32.8 31.1 18.9 43 9.2 ESE 26 46 14 25 1008.9 1005.7 0.0
28/06:30pm 34.7 33.1 16.5 33 11.7 SE 20 28 11 15 1008.5 1005.4 0.0
28/06:00pm 34.9 33.4 16.2 32 12.0 SSE 19 24 10 13 1008.2 1005.1 0.0
28/05:30pm 34.8 33.6 16.1 32 12.0 SSE 17 24 9 13 1008.0 1004.9 0.0
28/05:00pm 35.0 33.9 16.3 32 12.1 SE 17 26 9 14 1008.2 1005.1 0.0
28/04:30pm 35.0 33.9 16.3 32 12.0 ESE 17 24 9 13 1008.3 1005.2 0.0
28/04:00pm 35.3 36.0 16.1 32 12.4 ENE 7 13 4 7 1008.4 1005.3 0.0
28/03:30pm 34.5 34.2 16.4 34 11.7 E 13 20 7 11 1009.0 1005.8 0.0
28/03:00pm 34.4 34.8 16.3 34 11.7 ESE 9 15 5 8 1009.4 1006.2 0.0
28/02:30pm 34.2 34.5 16.1 34 11.6 S 9 22 5 12 1009.9 1006.8 0.0
28/02:00pm 34.3 33.5 16.2 34 11.6 SE 15 22 8 12 1010.2 1007.1 0.0
28/01:30pm 33.6 33.5 16.0 34 11.2 ESE 11 22 6 12 1010.5 1007.4 0.0
28/01:00pm 34.0 33.9 15.9 33 11.6 ENE 11 30 6 16 1010.8 1007.7 0.0
28/12:30pm 32.8 32.3 15.8 36 10.8 ENE 13 20 7 11 1011.4 1008.2 0.0
28/12:00pm 32.9 32.0 15.8 35 10.9 ESE 15 26 8 14 1011.8 1008.7 0.0
28/11:30am 32.4 31.5 15.8 36 10.5 ESE 15 20 8 11 1012.3 1009.2 0.0
28/11:00am 31.4 30.2 16.2 40 9.7 ESE 17 24 9 13 1012.7 1009.6 0.0
28/10:30am 30.2 29.0 16.2 42 8.9 ESE 17 26 9 14 1013.0 1009.9 0.0
28/10:00am 29.1 28.0 16.3 46 8.1 ESE 17 22 9 12 1013.1 1010.0 0.0
28/09:30am 28.7 27.2 16.3 47 7.8 ESE 19 28 10 15 1013.2 1010.1 0.0
28/09:00am 27.7 26.2 16.3 49 7.2 ESE 19 28 10 15 1013.0 1009.9 0.2
28/08:30am 27.0 25.3 16.3 52 6.7 ESE 20 28 11 15 1012.8 1009.7 0.2
28/08:00am 25.6 23.6 15.6 54 6.2 ESE 20 28 11 15 1012.7 1009.6 0.2
28/07:30am 24.6 23.0 13.8 51 6.5 SE 15 20 8 11 1012.5 1009.4 0.2
28/07:00am 23.7 21.9 12.0 48 6.8 S 13 17 7 9 1012.2 1009.1 0.2
28/06:30am 23.0 20.6 11.4 48 6.6 S 15 20 8 11 1011.9 1008.8 0.2
28/06:00am 22.9 20.5 11.3 48 6.6 S 15 19 8 10 1011.7 1008.5 0.2
28/05:30am 23.1 20.6 10.9 46 6.9 S 15 17 8 9 1011.4 1008.2 0.2
28/05:00am 23.5 21.3 10.9 45 7.1 S 13 19 7 10 1011.1 1008.0 0.2
28/04:30am 23.8 21.0 10.1 42 7.7 S 15 19 8 10 1010.9 1007.8 0.2
28/04:00am 24.2 20.6 9.8 40 8.0 S 19 24 10 13 1010.6 1007.5 0.2
28/03:30am 24.8 21.4 9.1 37 8.7 SSE 17 20 9 11 1010.7 1007.6 0.2
28/03:00am 25.3 21.9 9.2 36 8.9 S 17 22 9 12 1010.4 1007.3 0.2
28/02:30am 25.9 21.8 8.8 34 9.5 S 20 30 11 16 1010.6 1007.5 0.2
28/02:00am 26.8 23.4 9.2 33 9.9 S 17 19 9 10 1010.7 1007.6 0.2
28/01:30am 27.5 23.7 9.8 33 10.0 SSW 20 28 11 15 1010.3 1007.2 0.2
28/01:00am 28.2 24.6 10.4 33 10.2 SSW 20 26 11 14 1010.3 1007.2 0.2
28/12:30am 28.6 25.8 11.2 34 10.1 S 17 26 9 14 1010.4 1007.3 0.2
28/12:00am 28.9 25.8 11.5 34 10.2 S 19 24 10 13 1010.6 1007.5 0.2
 
Date/Time
WST
Temp
°C
App
Temp
°C
Dew
Point
Rel
Hum
%
Delta-T
°C
Wind Press
QNH
hPa
Press
MSL
hPa
Rain
since 9 am
mm
Dir
 
Spd
km/h
Gust
km/h
Spd
kts
Gust
kts
27/11:30pm 29.2 26.1 11.7 34 10.3 S 19 24 10 13 1010.5 1007.4 0.2
27/11:00pm 29.6 26.8 12.5 35 10.2 SSW 19 24 10 13 1010.5 1007.4 0.2
27/10:30pm 30.0 27.1 12.9 35 10.3 SSW 20 30 11 16 1010.5 1007.4 0.2
27/10:00pm 30.4 27.4 13.7 36 10.2 SSW 22 30 12 16 1010.4 1007.3 0.2
27/09:30pm 30.8 27.1 14.0 36 10.3 SSW 26 35 14 19 1010.3 1007.2 0.2
27/09:00pm 31.5 28.0 14.6 36 10.5 SSW 26 33 14 18 1010.0 1006.9 0.2
27/08:30pm 32.3 30.4 15.7 36 10.5 SW 20 28 11 15 1009.5 1006.3 0.2
27/08:00pm 32.5 30.3 15.9 36 10.6 SW 22 32 12 17 1009.0 1005.8 0.2
27/07:30pm 32.8 30.9 16.6 38 10.4 SW 22 28 12 15 1008.3 1005.2 0.2
27/07:00pm 33.1 31.1 16.5 37 10.7 SW 22 30 12 16 1007.7 1004.6 0.2
27/06:30pm 33.7 31.0 16.5 35 11.1 WSW 26 32 14 17 1007.1 1003.9 0.2
27/06:00pm 34.6 32.0 16.9 35 11.5 WSW 26 35 14 19 1006.6 1003.4 0.2
27/05:30pm 34.7 32.0 16.5 33 11.7 WSW 26 35 14 19 1006.4 1003.2 0.2
27/05:00pm 35.6 33.2 16.4 32 12.4 WSW 24 43 13 23 1006.3 1003.1 0.2
27/04:30pm 35.3 32.8 16.1 32 12.3 SW 24 35 13 19 1006.5 1003.3 0.2
27/04:00pm 36.5 34.9 16.1 29 13.2 WSW 19 28 10 15 1006.6 1003.4 0.2
27/03:30pm 35.3 32.8 16.1 32 12.3 SW 24 41 13 22 1006.7 1003.5 0.2
27/03:00pm 35.7 34.2 16.4 31 12.5 SW 19 30 10 16 1006.9 1003.7 0.2
27/02:30pm 35.6 33.6 16.4 32 12.4 SW 22 33 12 18 1007.2 1004.0 0.2
27/02:00pm 35.7 35.2 16.9 32 12.3 WSW 15 30 8 16 1007.6 1004.5 0.2
27/01:30pm 34.2 32.8 16.5 34 11.4 W 19 30 10 16 1008.1 1005.0 0.2
27/01:00pm 33.2 31.6 16.1 35 10.9 WNW 19 28 10 15 1008.6 1005.5 0.2
27/12:30pm 32.8 31.3 16.2 37 10.6 W 19 26 10 14 1009.0 1005.8 0.2
27/12:00pm 32.3 32.1 16.6 39 10.1 W 13 20 7 11 1009.3 1006.1 0.2
27/11:30am 31.7 31.0 16.4 39 9.8 W 15 20 8 11 1009.5 1006.3 0.2
27/11:00am 30.9 31.2 16.9 43 9.0 WSW 11 17 6 9 1009.9 1006.8 0.2
27/10:30am 29.3 29.5 16.8 47 8.0 WSW 11 17 6 9 1010.1 1007.0 0.2
27/10:00am 28.6 28.7 17.5 51 7.1 W 13 17 7 9 1010.1 1007.0 0.2
27/09:30am 27.9 27.9 17.1 51 6.9 WSW 13 17 7 9 1010.1 1007.0 0.2
27/09:00am 27.4 26.9 17.0 53 6.6 SW 15 20 8 11 1009.9 1006.8 -
27/08:30am 26.9 27.0 17.4 56 6.1 WSW 13 17 7 9 1010.0 1006.9 -
27/08:00am 25.8 25.8 17.2 59 5.5 WSW 13 15 7 8 1009.8 1006.7 -
27/07:30am 25.9 25.4 17.0 58 5.6 WSW 15 19 8 10 1009.4 1006.2 -
27/07:00am 25.9 25.9 17.3 59 5.5 WSW 13 20 7 11 1009.1 1005.9 -
27/06:30am 25.8 26.4 17.7 61 5.2 WSW 11 15 6 8 1008.8 1005.6 -
27/06:00am 25.6 26.4 17.3 60 5.3 WSW 9 11 5 6 1008.2 1005.1 -
27/05:30am 25.7 26.1 18.1 63 4.9 SW 13 17 7 9 1007.9 1004.8 -
27/05:00am 25.4 26.9 18.8 67 4.3 WSW 9 11 5 6 1007.8 1004.7 -
27/04:30am 25.6 27.5 19.7 70 3.9 WSW 9 11 5 6 1007.7 1004.6 -
27/04:00am 25.7 28.1 20.0 71 3.8 SW 7 9 4 5 1007.6 1004.5 -
27/03:30am 26.0 28.7 19.4 67 4.3 W 4 7 2 4 1007.6 1004.5 -
27/03:00am 27.3 26.9 17.2 54 6.4 SW 15 20 8 11 1007.7 1004.6 0.0
27/02:30am 28.1 27.7 16.1 48 7.5 SSW 13 17 7 9 1007.9 1004.8 -
27/02:00am 28.8 28.2 15.7 45 8.2 SSW 13 19 7 10 1007.7 1004.6 -
27/01:30am 29.2 27.3 15.3 42 8.7 SSW 19 24 10 13 1007.6 1004.5 -
27/01:00am 29.4 27.4 15.5 43 8.7 SW 20 26 11 14 1007.5 1004.4 -
27/12:30am 29.6 27.7 15.7 43 8.7 SW 20 28 11 15 1007.5 1004.4 -
27/12:00am 29.9 28.7 16.0 43 8.8 SW 17 24 9 13 1007.7 1004.6 -
 
Date/Time
WST
Temp
°C
App
Temp
°C
Dew
Point
Rel
Hum
%
Delta-T
°C
Wind Press
QNH
hPa
Press
MSL
hPa
Rain
since 9 am
mm
Dir
 
Spd
km/h
Gust
km/h
Spd
kts
Gust
kts
26/11:30pm 29.9 27.2 15.6 42 9.0 SW 24 32 13 17 1007.9 1004.8 -
26/11:00pm 30.4 27.3 15.7 41 9.3 SW 26 35 14 19 1007.9 1004.8 -
26/10:30pm 31.1 28.1 16.7 42 9.2 SW 28 37 15 20 1008.0 1004.9 -
26/10:00pm 31.7 28.9 17.2 42 9.4 SW 28 35 15 19 1007.7 1004.6 -
26/09:30pm 32.8 30.0 17.4 39 10.0 SW 28 44 15 24 1007.4 1004.3 -
26/09:25pm 32.9 30.4 17.1 39 10.2 SW 26 44 14 24 1007.3 1004.2 -
26/09:00pm 31.1 33.4 20.7 54 7.0 SW 9 11 5 6 1007.0 1003.8 3.0
26/08:30pm 30.9 33.4 20.2 53 7.2 SE 7 11 4 6 1006.0 1002.9 -
26/08:00pm 31.7 30.8 19.0 47 8.4 SSE 22 30 12 16 1005.8 1002.7 -
26/07:30pm 30.1 30.9 20.6 56 6.4 W 17 28 9 15 1006.0 1002.9 -
26/07:11pm 32.8 31.6 20.0 47 8.6 NW 26 50 14 27 1005.7 1002.6 -
26/07:06pm 33.7 33.7 18.2 39 10.2 NNW 15 37 8 20 1005.6 1002.5 -
26/07:00pm 32.8 35.9 21.0 50 8.1 NNE 6 9 3 5 1005.4 1002.3 -
26/06:30pm 32.7 35.2 20.2 47 8.4 E 7 9 4 5 1004.6 1001.4 -
26/06:00pm 32.1 34.9 19.7 48 8.3 NE 4 13 2 7 1004.4 1001.2 -
26/05:30pm 34.0 32.3 18.1 39 10.5 NNW 24 32 13 17 1004.8 1001.6 -
26/05:04pm 32.3 27.5 19.2 46 8.7 N 43 61 23 33 1004.6 1001.4 -
26/05:00pm 32.6 27.2 19.1 44 9.0 N 46 61 25 33 1004.1 1000.9 -
26/04:56pm 33.8 27.4 17.9 38 10.4 NNW 48 61 26 33 1004.2 1001.0 -
26/04:47pm 36.1 33.9 16.8 32 12.6 NNW 24 61 13 33 1004.3 1001.1 -
26/04:30pm 37.8 36.0 15.6 27 14.3 NNW 19 32 10 17 1003.9 1000.7 -
26/04:00pm 38.5 35.9 15.0 25 15.1 W 22 32 12 17 1004.0 1000.8 -
26/03:30pm 38.7 37.1 15.1 24 15.1 W 17 26 9 14 1004.2 1001.0 -
26/03:00pm 38.0 37.6 15.2 26 14.6 NNW 11 20 6 11 1004.5 1001.3 -
26/02:30pm 37.7 36.9 16.1 28 14.0 NW 15 20 8 11 1004.8 1001.6 -
26/01:30pm 38.5 37.9 15.6 26 14.8 N 13 19 7 10 1005.4 1002.3 0.0
26/01:00pm 38.1 36.2 15.2 25 14.7 NW 19 24 10 13 1005.6 1002.5 0.0
26/12:30pm 37.6 37.3 15.4 27 14.2 NW 11 20 6 11 1006.3 1003.1 0.0
26/12:00pm 38.2 37.7 15.9 26 14.5 WNW 13 20 7 11 1006.7 1003.5 0.0
26/11:30am 37.7 36.8 14.9 26 14.5 WSW 13 20 7 11 1007.1 1003.9 0.0
26/11:00am 37.3 38.1 17.3 30 13.2 NNE 9 15 5 8 1007.7 1004.6 0.0
26/10:30am 36.0 35.6 17.2 33 12.3 N 15 24 8 13 1008.1 1005.0 0.0
26/10:00am 35.7 36.4 17.9 35 11.8 N 11 17 6 9 1008.5 1005.4 0.0
26/09:30am 35.0 35.0 18.1 36 11.2 NNE 15 20 8 11 1008.8 1005.6 0.0
26/09:00am 33.8 34.1 17.9 38 10.4 NE 13 19 7 10 1008.9 1005.7 0.0

Other Formats:

Comma delimited format used in spreadsheet applications
http://www.bom.gov.au/fwo/IDW60801/IDW60801.94429.axf

JavaScript Object Notation format (JSON) in row-major order
http://www.bom.gov.au/fwo/IDW60801/IDW60801.94429.json